Time,TemperatureF,DewpointF,PressureIn,WindDirection,WindDirectionDegrees,WindSpeedMPH,WindSpeedGustMPH,Humidity,HourlyPrecipIn,Conditions,Clouds,dailyrainin,SoftwareType,DateUTC
2013-03-01 00:01:00,33.4,27.3,30.26,SE,129,0.0,0.0,78,0.00,,---,0.00,VWS V14.01,2013-03-01 06:01:00,
2013-03-01 00:06:00,33.5,27.4,30.26,SE,129,0.0,1.0,78,0.00,,---,0.00,VWS V14.01,2013-03-01 06:06:00,
2013-03-01 00:11:00,33.3,27.2,30.26,SE,128,0.0,1.0,78,0.00,,---,0.00,VWS V14.01,2013-03-01 06:11:00,
2013-03-01 00:16:00,32.9,27.1,30.26,SW,226,2.0,3.0,79,0.00,,---,0.00,VWS V14.01,2013-03-01 06:16:00,
2013-03-01 00:21:00,31.7,27.1,30.26,SW,214,2.0,3.0,83,0.00,,---,0.00,VWS V14.01,2013-03-01 06:21:00,
2013-03-01 00:27:00,31.1,26.8,30.27,SSW,202,2.0,3.0,84,0.00,,---,0.00,VWS V14.01,2013-03-01 06:27:00,
2013-03-01 00:32:00,30.8,26.8,30.26,SSW,194,2.0,3.0,85,0.00,,---,0.00,VWS V14.01,2013-03-01 06:32:00,
2013-03-01 00:37:00,30.5,26.8,30.27,SSW,204,3.0,3.0,86,0.00,,---,0.00,VWS V14.01,2013-03-01 06:37:00,
2013-03-01 00:42:00,30.5,26.8,30.27,South,188,2.0,3.0,86,0.00,,---,0.00,VWS V14.01,2013-03-01 06:42:00,
2013-03-01 00:47:00,30.4,26.7,30.27,South,188,2.0,3.0,86,0.00,,---,0.00,VWS V14.01,2013-03-01 06:47:00,
2013-03-01 00:52:00,30.4,26.7,30.26,South,183,2.0,3.0,86,0.00,,---,0.00,VWS V14.01,2013-03-01 06:52:00,
2013-03-01 00:57:00,30.4,26.7,30.27,SE,141,2.0,3.0,86,0.00,,---,0.00,VWS V14.01,2013-03-01 06:57:00,
2013-03-01 01:03:00,30.6,26.9,30.27,SE,143,1.0,2.0,86,0.00,,---,0.00,VWS V14.01,2013-03-01 07:03:00,
2013-03-01 01:08:00,31.2,27.2,30.27,SE,143,0.0,2.0,85,0.00,,---,0.00,VWS V14.01,2013-03-01 07:08:00,
2013-03-01 01:13:00,31.4,27.1,30.27,SE,140,0.0,2.0,84,0.00,,---,0.00,VWS V14.01,2013-03-01 07:13:00,
2013-03-01 01:18:00,31.5,26.9,30.26,SE,140,1.0,2.0,83,0.00,,---,0.00,VWS V14.01,2013-03-01 07:18:00,
2013-03-01 01:23:00,31.7,27.4,30.26,SE,138,0.0,2.0,84,0.00,,---,0.00,VWS V14.01,2013-03-01 07:23:00,
2013-03-01 01:28:00,31.7,27.4,30.26,SE,139,0.0,2.0,84,0.00,,---,0.00,VWS V14.01,2013-03-01 07:28:00,
2013-03-01 01:34:00,31.9,27.0,30.26,SE,138,0.0,1.0,82,0.00,,---,0.00,VWS V14.01,2013-03-01 07:34:00,
2013-03-01 01:39:00,32.4,27.2,30.26,SE,139,0.0,1.0,81,0.00,,---,0.00,VWS V14.01,2013-03-01 07:39:00,
2013-03-01 01:44:00,32.1,27.2,30.26,SE,138,0.0,1.0,82,0.00,,---,0.00,VWS V14.01,2013-03-01 07:44:00,
2013-03-01 01:49:00,31.0,26.7,30.27,SSW,198,1.0,1.0,84,0.00,,---,0.00,VWS V14.01,2013-03-01 07:49:00,
2013-03-01 01:54:00,29.8,26.1,30.27,SSW,198,0.0,1.0,86,0.00,,---,0.00,VWS V14.01,2013-03-01 07:54:00,
2013-03-01 01:59:00,29.5,26.4,30.27,SSW,210,2.0,2.0,88,0.00,,---,0.00,VWS V14.01,2013-03-01 07:59:00,
2013-03-01 02:04:00,28.9,26.1,30.28,SSE,168,2.0,5.0,89,0.00,,---,0.00,VWS V14.01,2013-03-01 08:04:00,
2013-03-01 02:10:00,28.9,26.1,30.27,South,191,1.0,5.0,89,0.00,,---,0.00,VWS V14.01,2013-03-01 08:10:00,
2013-03-01 02:15:00,29.0,26.2,30.28,SSE,152,3.0,5.0,89,0.00,,---,0.00,VWS V14.01,2013-03-01 08:15:00,
2013-03-01 02:20:00,29.2,26.4,30.28,SSW,201,3.0,5.0,89,0.00,,---,0.00,VWS V14.01,2013-03-01 08:20:00,
2013-03-01 02:25:00,29.5,26.4,30.27,South,191,2.0,5.0,88,0.00,,---,0.00,VWS V14.01,2013-03-01 08:25:00,
2013-03-01 02:30:00,29.7,26.6,30.28,SSE,153,2.0,5.0,88,0.00,,---,0.00,VWS V14.01,2013-03-01 08:30:00,
2013-03-01 02:35:00,29.9,26.5,30.27,South,180,1.0,3.0,87,0.00,,---,0.00,VWS V14.01,2013-03-01 08:35:00,
2013-03-01 02:41:00,30.1,26.7,30.27,SSE,152,1.0,3.0,87,0.00,,---,0.00,VWS V14.01,2013-03-01 08:41:00,
2013-03-01 02:46:00,30.3,26.9,30.27,South,177,2.0,3.0,87,0.00,,---,0.00,VWS V14.01,2013-03-01 08:46:00,
2013-03-01 02:51:00,30.6,27.2,30.27,SSE,159,1.0,3.0,87,0.00,,---,0.00,VWS V14.01,2013-03-01 08:51:00,
2013-03-01 02:56:00,30.9,27.5,30.27,SE,141,1.0,3.0,87,0.00,,---,0.00,VWS V14.01,2013-03-01 08:56:00,
2013-03-01 03:01:00,31.2,27.5,30.26,SE,144,0.0,0.0,86,0.00,,---,0.00,VWS V14.01,2013-03-01 09:01:00,
2013-03-01 03:06:00,31.3,27.6,30.26,SE,143,0.0,1.0,86,0.00,,---,0.00,VWS V14.01,2013-03-01 09:06:00,
2013-03-01 03:12:00,31.4,27.7,30.26,SE,143,0.0,1.0,86,0.00,,---,0.00,VWS V14.01,2013-03-01 09:12:00,
2013-03-01 03:17:00,31.4,27.7,30.26,SE,143,0.0,1.0,86,0.00,,---,0.00,VWS V14.01,2013-03-01 09:17:00,
2013-03-01 03:22:00,31.6,28.2,30.26,SE,137,1.0,1.0,87,0.00,,---,0.00,VWS V14.01,2013-03-01 09:22:00,
2013-03-01 03:27:00,31.4,28.3,30.26,SE,134,0.0,1.0,88,0.00,,---,0.00,VWS V14.01,2013-03-01 09:27:00,
2013-03-01 03:32:00,31.1,28.0,30.26,SE,134,0.0,0.0,88,0.00,,---,0.00,VWS V14.01,2013-03-01 09:32:00,
2013-03-01 03:37:00,31.0,27.9,30.26,SE,134,0.0,0.0,88,0.00,,---,0.00,VWS V14.01,2013-03-01 09:37:00,
2013-03-01 03:43:00,31.2,28.1,30.26,SE,134,0.0,0.0,88,0.00,,---,0.00,VWS V14.01,2013-03-01 09:43:00,
2013-03-01 03:48:00,31.4,28.0,30.25,SE,134,0.0,0.0,87,0.00,,---,0.00,VWS V14.01,2013-03-01 09:48:00,
2013-03-01 03:53:00,31.6,28.2,30.25,SE,134,0.0,0.0,87,0.00,,---,0.00,VWS V14.01,2013-03-01 09:53:00,
2013-03-01 03:58:00,31.6,27.9,30.25,SE,134,0.0,1.0,86,0.00,,---,0.00,VWS V14.01,2013-03-01 09:58:00,
2013-03-01 04:03:00,31.4,28.0,30.25,SW,225,1.0,1.0,87,0.00,,---,0.00,VWS V14.01,2013-03-01 10:03:00,
2013-03-01 04:08:00,31.2,28.1,30.25,WSW,255,1.0,1.0,88,0.00,,---,0.00,VWS V14.01,2013-03-01 10:08:00,
2013-03-01 04:14:00,31.0,27.9,30.26,WSW,255,0.0,1.0,88,0.00,,---,0.00,VWS V14.01,2013-03-01 10:14:00,
2013-03-01 04:19:00,30.9,28.0,30.26,NNW,333,0.0,1.0,89,0.00,,---,0.00,VWS V14.01,2013-03-01 10:19:00,
2013-03-01 04:24:00,30.9,27.8,30.25,NNW,333,0.0,1.0,88,0.00,,---,0.00,VWS V14.01,2013-03-01 10:24:00,
2013-03-01 04:29:00,31.1,27.7,30.25,NNW,333,0.0,1.0,87,0.00,,---,0.00,VWS V14.01,2013-03-01 10:29:00,
2013-03-01 04:34:00,31.3,27.9,30.25,NNW,333,0.0,0.0,87,0.00,,---,0.00,VWS V14.01,2013-03-01 10:34:00,
2013-03-01 04:40:00,31.2,27.8,30.25,NNW,333,0.0,1.0,87,0.00,,---,0.00,VWS V14.01,2013-03-01 10:40:00,
2013-03-01 04:45:00,31.4,28.0,30.25,North,11,2.0,2.0,87,0.00,,---,0.00,VWS V14.01,2013-03-01 10:45:00,
2013-03-01 04:50:00,31.6,27.9,30.25,NNE,18,2.0,2.0,86,0.00,,---,0.00,VWS V14.01,2013-03-01 10:50:00,
2013-03-01 04:55:00,31.8,27.8,30.25,NNE,27,0.0,2.0,85,0.00,,---,0.00,VWS V14.01,2013-03-01 10:55:00,
2013-03-01 05:00:00,31.8,27.8,30.25,North,9,2.0,3.0,85,0.00,,---,0.00,VWS V14.01,2013-03-01 11:00:00,
2013-03-01 05:05:00,31.7,27.7,30.25,NNW,346,1.0,2.0,85,0.00,,---,0.00,VWS V14.01,2013-03-01 11:05:00,
2013-03-01 05:11:00,31.6,27.6,30.25,NW,319,0.0,2.0,85,0.00,,---,0.00,VWS V14.01,2013-03-01 11:11:00,
2013-03-01 05:16:00,31.4,27.7,30.25,NW,316,0.0,2.0,86,0.00,,---,0.00,VWS V14.01,2013-03-01 11:16:00,
2013-03-01 05:21:00,31.3,27.6,30.25,NW,316,1.0,2.0,86,0.00,,---,0.00,VWS V14.01,2013-03-01 11:21:00,
2013-03-01 05:26:00,31.2,27.5,30.25,NNW,346,0.0,2.0,86,0.00,,---,0.00,VWS V14.01,2013-03-01 11:26:00,
2013-03-01 05:31:00,31.0,27.3,30.25,SW,219,1.0,1.0,86,0.00,,---,0.00,VWS V14.01,2013-03-01 11:31:00,
2013-03-01 05:36:00,30.8,27.1,30.25,SW,219,0.0,1.0,86,0.00,,---,0.00,VWS V14.01,2013-03-01 11:36:00,
2013-03-01 05:41:00,30.7,27.3,30.25,SSW,197,2.0,3.0,87,0.00,,---,0.00,VWS V14.01,2013-03-01 11:41:00,
2013-03-01 05:46:00,30.5,27.4,30.25,SSW,203,1.0,3.0,88,0.00,,---,0.00,VWS V14.01,2013-03-01 11:46:00,
2013-03-01 05:52:00,30.5,27.4,30.25,SSW,203,1.0,3.0,88,0.00,,---,0.00,VWS V14.01,2013-03-01 11:52:00,
2013-03-01 05:57:00,30.9,27.5,30.25,SSW,203,0.0,3.0,87,0.00,,---,0.00,VWS V14.01,2013-03-01 11:57:00,
2013-03-01 06:02:00,31.2,27.8,30.25,SSW,203,0.0,0.0,87,0.00,,---,0.00,VWS V14.01,2013-03-01 12:02:00,
2013-03-01 06:07:00,31.3,28.2,30.26,NNE,18,10.0,10.0,88,0.00,,---,0.00,VWS V14.01,2013-03-01 12:07:00,
2013-03-01 06:12:00,30.9,27.8,30.27,NNE,30,4.0,10.0,88,0.00,,---,0.00,VWS V14.01,2013-03-01 12:12:00,
2013-03-01 06:17:00,31.2,28.1,30.27,NNE,15,5.0,10.0,88,0.00,,---,0.00,VWS V14.01,2013-03-01 12:17:00,
2013-03-01 06:22:00,31.4,28.0,30.27,NNE,30,8.0,10.0,87,0.00,,---,0.00,VWS V14.01,2013-03-01 12:22:00,
2013-03-01 06:28:00,31.7,28.3,30.27,NNE,17,7.0,10.0,87,0.00,,---,0.00,VWS V14.01,2013-03-01 12:28:00,
2013-03-01 06:33:00,31.8,27.8,30.27,NNE,18,4.0,8.0,85,0.00,,---,0.00,VWS V14.01,2013-03-01 12:33:00,
2013-03-01 06:38:00,31.7,28.0,30.28,North,349,2.0,8.0,86,0.00,,---,0.00,VWS V14.01,2013-03-01 12:38:00,
2013-03-01 06:43:00,31.5,28.1,30.28,NNW,345,2.0,8.0,87,0.00,,---,0.00,VWS V14.01,2013-03-01 12:43:00,
2013-03-01 06:48:00,31.4,28.0,30.28,North,356,2.0,8.0,87,0.00,,---,0.00,VWS V14.01,2013-03-01 12:48:00,
2013-03-01 06:53:00,31.5,28.1,30.29,NNE,27,0.0,8.0,87,0.00,,---,0.00,VWS V14.01,2013-03-01 12:53:00,
2013-03-01 06:58:00,31.4,28.0,30.28,NE,42,0.0,8.0,87,0.00,,---,0.00,VWS V14.01,2013-03-01 12:58:00,
2013-03-01 07:03:00,31.4,28.0,30.28,NNW,332,5.0,6.0,87,0.00,,---,0.00,VWS V14.01,2013-03-01 13:03:00,
2013-03-01 07:08:00,31.2,28.1,30.29,NNW,329,3.0,6.0,88,0.00,,---,0.00,VWS V14.01,2013-03-01 13:08:00,
2013-03-01 07:14:00,31.0,27.9,30.28,North,350,0.0,6.0,88,0.00,,---,0.00,VWS V14.01,2013-03-01 13:14:00,
2013-03-01 07:19:00,30.9,27.8,30.28,ESE,107,1.0,6.0,88,0.00,,---,0.00,VWS V14.01,2013-03-01 13:19:00,
2013-03-01 07:24:00,30.8,27.7,30.28,East,88,2.0,6.0,88,0.00,,---,0.00,VWS V14.01,2013-03-01 13:24:00,
2013-03-01 07:29:00,30.9,27.8,30.29,WNW,295,4.0,6.0,88,0.00,,---,0.00,VWS V14.01,2013-03-01 13:29:00,
2013-03-01 07:34:00,30.9,28.0,30.29,NW,314,2.0,3.0,89,0.00,,---,0.00,VWS V14.01,2013-03-01 13:34:00,
2013-03-01 07:39:00,31.1,28.5,30.29,NW,321,0.0,3.0,90,0.00,,---,0.00,VWS V14.01,2013-03-01 13:39:00,
2013-03-01 07:44:00,31.2,28.3,30.29,NW,322,0.0,3.0,89,0.00,,---,0.00,VWS V14.01,2013-03-01 13:44:00,
2013-03-01 07:50:00,31.4,28.5,30.30,SW,232,1.0,3.0,89,0.00,,---,0.00,VWS V14.01,2013-03-01 13:50:00,
2013-03-01 07:55:00,31.6,28.7,30.29,SW,214,1.0,3.0,89,0.00,,---,0.00,VWS V14.01,2013-03-01 13:55:00,
2013-03-01 08:00:00,32.0,29.1,30.29,WSW,241,1.0,3.0,89,0.00,,---,0.00,VWS V14.01,2013-03-01 14:00:00,
2013-03-01 08:05:00,32.3,29.4,30.30,South,188,2.0,3.0,89,0.00,,---,0.00,VWS V14.01,2013-03-01 14:05:00,
2013-03-01 08:10:00,32.8,29.9,30.30,West,259,2.0,4.0,89,0.00,,---,0.00,VWS V14.01,2013-03-01 14:10:00,
2013-03-01 08:15:00,33.3,30.4,30.30,SW,231,1.0,4.0,89,0.00,,---,0.00,VWS V14.01,2013-03-01 14:15:00,
2013-03-01 08:20:00,33.7,30.5,30.30,SSW,211,2.0,4.0,88,0.00,,---,0.00,VWS V14.01,2013-03-01 14:20:00,
2013-03-01 08:26:00,34.1,30.6,30.30,SSW,197,3.0,4.0,87,0.00,,---,0.00,VWS V14.01,2013-03-01 14:26:00,
2013-03-01 08:31:00,34.3,30.8,30.31,SSW,197,3.0,4.0,87,0.00,,---,0.00,VWS V14.01,2013-03-01 14:31:00,
2013-03-01 08:36:00,34.5,31.0,30.31,SSW,211,1.0,5.0,87,0.00,,---,0.00,VWS V14.01,2013-03-01 14:36:00,
2013-03-01 08:41:00,34.7,31.2,30.32,West,260,1.0,6.0,87,0.00,,---,0.00,VWS V14.01,2013-03-01 14:41:00,
2013-03-01 08:46:00,35.0,31.8,30.32,NW,321,6.0,6.0,88,0.00,,---,0.00,VWS V14.01,2013-03-01 14:46:00,
2013-03-01 08:51:00,35.5,32.0,30.33,WNW,301,2.0,8.0,87,0.00,,---,0.00,VWS V14.01,2013-03-01 14:51:00,
2013-03-01 08:56:00,35.9,32.4,30.33,North,354,0.0,8.0,87,0.00,,---,0.00,VWS V14.01,2013-03-01 14:56:00,
2013-03-01 09:01:00,36.2,32.4,30.32,North,3,0.0,0.0,86,0.00,,---,0.00,VWS V14.01,2013-03-01 15:01:00,
2013-03-01 09:07:00,36.7,32.6,30.31,ESE,117,1.0,2.0,85,0.00,,---,0.00,VWS V14.01,2013-03-01 15:07:00,
2013-03-01 09:12:00,37.5,33.1,30.31,SE,146,2.0,3.0,84,0.00,,---,0.00,VWS V14.01,2013-03-01 15:12:00,
2013-03-01 09:17:00,38.1,32.8,30.32,WNW,300,1.0,4.0,81,0.00,,---,0.00,VWS V14.01,2013-03-01 15:17:00,
2013-03-01 09:22:00,38.5,32.9,30.32,NW,307,5.0,7.0,80,0.00,,---,0.00,VWS V14.01,2013-03-01 15:22:00,
2013-03-01 09:27:00,38.6,33.3,30.32,North,4,2.0,7.0,81,0.00,,---,0.00,VWS V14.01,2013-03-01 15:27:00,
2013-03-01 09:32:00,38.8,33.2,30.32,NW,323,3.0,4.0,80,0.00,,---,0.00,VWS V14.01,2013-03-01 15:32:00,
2013-03-01 09:37:00,39.1,32.8,30.31,WNW,296,1.0,4.0,78,0.00,,---,0.00,VWS V14.01,2013-03-01 15:37:00,
2013-03-01 09:42:00,39.5,33.2,30.31,NW,318,0.0,4.0,78,0.00,,---,0.00,VWS V14.01,2013-03-01 15:42:00,
2013-03-01 09:48:00,39.7,32.4,30.31,NW,323,2.0,4.0,75,0.00,,---,0.00,VWS V14.01,2013-03-01 15:48:00,
2013-03-01 09:53:00,39.9,32.3,30.32,NW,319,0.0,4.0,74,0.00,,---,0.00,VWS V14.01,2013-03-01 15:53:00,
2013-03-01 09:58:00,40.2,32.6,30.31,NW,322,1.0,5.0,74,0.00,,---,0.00,VWS V14.01,2013-03-01 15:58:00,
2013-03-01 10:03:00,40.6,32.3,30.31,West,274,4.0,5.0,72,0.00,,---,0.00,VWS V14.01,2013-03-01 16:03:00,
2013-03-01 10:08:00,41.0,32.7,30.31,West,260,3.0,7.0,72,0.00,,---,0.00,VWS V14.01,2013-03-01 16:08:00,
2013-03-01 10:13:00,41.1,31.7,30.31,WNW,296,4.0,7.0,69,0.00,,---,0.00,VWS V14.01,2013-03-01 16:13:00,
2013-03-01 10:18:00,41.5,33.2,30.31,WNW,285,3.0,7.0,72,0.00,,---,0.00,VWS V14.01,2013-03-01 16:18:00,
2013-03-01 10:23:00,42.2,32.4,30.31,North,359,5.0,7.0,68,0.00,,---,0.00,VWS V14.01,2013-03-01 16:23:00,
2013-03-01 10:29:00,43.0,32.8,30.31,WNW,301,3.0,7.0,67,0.00,,---,0.00,VWS V14.01,2013-03-01 16:29:00,
2013-03-01 10:34:00,43.3,32.7,30.31,WNW,288,6.0,7.0,66,0.00,,---,0.00,VWS V14.01,2013-03-01 16:34:00,
2013-03-01 10:39:00,43.6,32.2,30.30,WNW,302,4.0,7.0,64,0.00,,---,0.00,VWS V14.01,2013-03-01 16:39:00,
2013-03-01 10:44:00,44.4,33.0,30.30,WNW,284,3.0,9.0,64,0.00,,---,0.00,VWS V14.01,2013-03-01 16:44:00,
2013-03-01 10:49:00,45.3,33.1,30.30,WNW,300,6.0,13.0,62,0.00,,---,0.00,VWS V14.01,2013-03-01 16:49:00,
2013-03-01 10:54:00,46.4,32.9,30.30,NW,319,9.0,13.0,59,0.00,,---,0.00,VWS V14.01,2013-03-01 16:54:00,
2013-03-01 11:00:00,47.2,32.3,30.30,NW,316,8.0,13.0,56,0.00,,---,0.00,VWS V14.01,2013-03-01 17:00:00,
2013-03-01 11:05:00,47.8,32.4,30.30,NNW,337,9.0,14.0,55,0.00,,---,0.00,VWS V14.01,2013-03-01 17:05:00,
2013-03-01 11:10:00,48.3,32.4,30.30,NW,326,13.0,18.0,54,0.00,,---,0.00,VWS V14.01,2013-03-01 17:10:00,
2013-03-01 11:15:00,48.3,32.0,30.30,NW,309,12.0,20.0,53,0.00,,---,0.00,VWS V14.01,2013-03-01 17:15:00,
2013-03-01 11:20:00,48.5,33.5,30.30,NW,316,6.0,20.0,56,0.00,,---,0.00,VWS V14.01,2013-03-01 17:20:00,
2013-03-01 11:25:00,49.1,33.7,30.30,North,3,10.0,20.0,55,0.00,,---,0.00,VWS V14.01,2013-03-01 17:25:00,
2013-03-01 11:30:00,49.4,33.0,30.30,NNE,16,12.0,20.0,53,0.00,,---,0.00,VWS V14.01,2013-03-01 17:30:00,
2013-03-01 11:35:00,50.1,34.1,30.29,North,1,6.0,16.0,54,0.00,,---,0.00,VWS V14.01,2013-03-01 17:35:00,
2013-03-01 11:41:00,50.4,33.0,30.29,WNW,290,7.0,17.0,51,0.00,,---,0.00,VWS V14.01,2013-03-01 17:41:00,
2013-03-01 11:46:00,50.8,33.3,30.29,NNW,332,9.0,17.0,51,0.00,,---,0.00,VWS V14.01,2013-03-01 17:46:00,
2013-03-01 11:51:00,51.3,33.8,30.29,NNW,348,9.0,17.0,51,0.00,,---,0.00,VWS V14.01,2013-03-01 17:51:00,
2013-03-01 11:56:00,51.2,33.2,30.28,North,354,10.0,17.0,50,0.00,,---,0.00,VWS V14.01,2013-03-01 17:56:00,
2013-03-01 12:01:00,51.0,33.5,30.28,NNW,336,6.0,10.0,51,0.00,,---,0.00,VWS V14.01,2013-03-01 18:01:00,
2013-03-01 12:06:00,50.9,34.9,30.28,NNW,336,9.0,14.0,54,0.00,,---,0.00,VWS V14.01,2013-03-01 18:06:00,
2013-03-01 12:11:00,51.5,35.0,30.28,North,352,12.0,15.0,53,0.00,,---,0.00,VWS V14.01,2013-03-01 18:11:00,
2013-03-01 12:16:00,51.0,34.5,30.28,North,9,9.0,16.0,53,0.00,,---,0.00,VWS V14.01,2013-03-01 18:16:00,
2013-03-01 12:22:00,51.6,34.6,30.28,NNW,340,12.0,22.0,52,0.00,,---,0.00,VWS V14.01,2013-03-01 18:22:00,
2013-03-01 12:27:00,52.3,35.2,30.27,NNW,339,5.0,22.0,52,0.00,,---,0.00,VWS V14.01,2013-03-01 18:27:00,
2013-03-01 12:32:00,52.9,34.8,30.27,NNW,336,10.0,16.0,50,0.00,,---,0.00,VWS V14.01,2013-03-01 18:32:00,
2013-03-01 12:37:00,53.1,35.5,30.27,NNE,18,12.0,19.0,51,0.00,,---,0.00,VWS V14.01,2013-03-01 18:37:00,
2013-03-01 12:42:00,52.4,34.3,30.27,NNE,14,13.0,21.0,50,0.00,,---,0.00,VWS V14.01,2013-03-01 18:42:00,
2013-03-01 12:47:00,51.8,34.8,30.27,NNW,343,8.0,21.0,52,0.00,,---,0.00,VWS V14.01,2013-03-01 18:47:00,
2013-03-01 12:52:00,52.3,35.2,30.26,North,354,10.0,21.0,52,0.00,,---,0.00,VWS V14.01,2013-03-01 18:52:00,
2013-03-01 12:57:00,52.2,35.1,30.26,NNE,26,18.0,21.0,52,0.00,,---,0.00,VWS V14.01,2013-03-01 18:57:00,
2013-03-01 13:03:00,52.4,35.8,30.26,NNE,20,14.0,20.0,53,0.00,,---,0.00,VWS V14.01,2013-03-01 19:03:00,
2013-03-01 13:08:00,52.6,34.0,30.25,North,352,15.0,23.0,49,0.00,,---,0.00,VWS V14.01,2013-03-01 19:08:00,
2013-03-01 13:13:00,52.0,33.5,30.25,North,3,11.0,23.0,49,0.00,,---,0.00,VWS V14.01,2013-03-01 19:13:00,
2013-03-01 13:18:00,52.8,33.7,30.25,North,11,7.0,23.0,48,0.00,,---,0.00,VWS V14.01,2013-03-01 19:18:00,
2013-03-01 13:23:00,53.3,34.1,30.25,NNW,345,17.0,23.0,48,0.00,,---,0.00,VWS V14.01,2013-03-01 19:23:00,
2013-03-01 13:28:00,53.3,34.1,30.25,NW,315,9.0,23.0,48,0.00,,---,0.00,VWS V14.01,2013-03-01 19:28:00,
2013-03-01 13:34:00,53.9,33.6,30.25,NNW,331,14.0,19.0,46,0.00,,---,0.00,VWS V14.01,2013-03-01 19:34:00,
2013-03-01 13:39:00,53.4,33.7,30.25,NW,315,15.0,19.0,47,0.00,,---,0.00,VWS V14.01,2013-03-01 19:39:00,
2013-03-01 13:44:00,54.0,32.0,30.25,North,1,13.0,19.0,43,0.00,,---,0.00,VWS V14.01,2013-03-01 19:44:00,
2013-03-01 13:49:00,53.8,32.4,30.25,North,352,15.0,22.0,44,0.00,,---,0.00,VWS V14.01,2013-03-01 19:49:00,
2013-03-01 13:54:00,53.8,30.7,30.24,NW,309,20.0,25.0,41,0.00,,---,0.00,VWS V14.01,2013-03-01 19:54:00,
2013-03-01 13:59:00,52.7,31.4,30.25,NNE,12,17.0,27.0,44,0.00,,---,0.00,VWS V14.01,2013-03-01 19:59:00,
2013-03-01 14:04:00,53.3,32.0,30.25,NNW,335,18.0,24.0,44,0.00,,---,0.00,VWS V14.01,2013-03-01 20:04:00,
2013-03-01 14:10:00,52.6,31.9,30.25,NW,314,17.0,25.0,45,0.00,,---,0.00,VWS V14.01,2013-03-01 20:10:00,
2013-03-01 14:15:00,53.0,33.3,30.25,NW,321,17.0,25.0,47,0.00,,---,0.00,VWS V14.01,2013-03-01 20:15:00,
2013-03-01 14:20:00,53.4,31.5,30.25,NNW,333,22.0,26.0,43,0.00,,---,0.00,VWS V14.01,2013-03-01 20:20:00,
2013-03-01 14:25:00,53.3,32.5,30.25,NNW,334,15.0,31.0,45,0.00,,---,0.00,VWS V14.01,2013-03-01 20:25:00,
2013-03-01 14:30:00,53.4,33.2,30.25,NNW,330,15.0,31.0,46,0.00,,---,0.00,VWS V14.01,2013-03-01 20:30:00,
2013-03-01 14:35:00,53.5,33.8,30.25,NNE,25,23.0,27.0,47,0.00,,---,0.00,VWS V14.01,2013-03-01 20:35:00,
2013-03-01 14:40:00,52.1,33.5,30.25,NNW,342,18.0,27.0,49,0.00,,---,0.00,VWS V14.01,2013-03-01 20:40:00,
2013-03-01 14:45:00,51.7,33.2,30.25,North,9,15.0,27.0,49,0.00,,---,0.00,VWS V14.01,2013-03-01 20:45:00,
2013-03-01 14:50:00,51.3,33.8,30.26,North,349,14.0,27.0,51,0.00,,---,0.00,VWS V14.01,2013-03-01 20:50:00,
2013-03-01 14:56:00,51.9,33.9,30.26,NNW,338,14.0,27.0,50,0.00,,---,0.00,VWS V14.01,2013-03-01 20:56:00,
2013-03-01 15:01:00,52.2,34.1,30.26,NW,307,12.0,16.0,50,0.00,,---,0.00,VWS V14.01,2013-03-01 21:01:00,
2013-03-01 15:06:00,51.4,33.4,30.26,NNW,342,16.0,27.0,50,0.00,,---,0.00,VWS V14.01,2013-03-01 21:06:00,
2013-03-01 15:11:00,50.5,33.1,30.26,North,6,13.0,27.0,51,0.00,,---,0.00,VWS V14.01,2013-03-01 21:11:00,
2013-03-01 15:16:00,50.6,33.6,30.26,North,350,18.0,27.0,52,0.00,,---,0.00,VWS V14.01,2013-03-01 21:16:00,
2013-03-01 15:21:00,50.8,33.3,30.26,NNW,333,18.0,29.0,51,0.00,,---,0.00,VWS V14.01,2013-03-01 21:21:00,
2013-03-01 15:26:00,50.8,33.8,30.26,North,359,20.0,29.0,52,0.00,,---,0.00,VWS V14.01,2013-03-01 21:26:00,
2013-03-01 15:31:00,50.1,32.2,30.27,NNW,336,15.0,19.0,50,0.00,,---,0.00,VWS V14.01,2013-03-01 21:31:00,
2013-03-01 15:37:00,51.0,33.0,30.27,NNE,12,19.0,25.0,50,0.00,,---,0.00,VWS V14.01,2013-03-01 21:37:00,
2013-03-01 15:42:00,51.2,32.7,30.27,North,360,17.0,30.0,49,0.00,,---,0.00,VWS V14.01,2013-03-01 21:42:00,
2013-03-01 15:47:00,50.3,32.4,30.27,North,353,16.0,30.0,50,0.00,,---,0.00,VWS V14.01,2013-03-01 21:47:00,
2013-03-01 15:52:00,50.5,33.1,30.27,NW,320,17.0,30.0,51,0.00,,---,0.00,VWS V14.01,2013-03-01 21:52:00,
2013-03-01 15:57:00,50.8,32.3,30.27,NNW,342,13.0,30.0,49,0.00,,---,0.00,VWS V14.01,2013-03-01 21:57:00,
2013-03-01 16:02:00,50.3,32.4,30.28,North,1,13.0,17.0,50,0.00,,---,0.00,VWS V14.01,2013-03-01 22:02:00,
2013-03-01 16:07:00,49.6,31.7,30.28,NW,318,12.0,24.0,50,0.00,,---,0.00,VWS V14.01,2013-03-01 22:07:00,
2013-03-01 16:12:00,49.5,31.1,30.28,NNW,339,12.0,24.0,49,0.00,,---,0.00,VWS V14.01,2013-03-01 22:12:00,
2013-03-01 16:17:00,50.5,31.6,30.28,NNW,342,15.0,24.0,48,0.00,,---,0.00,VWS V14.01,2013-03-01 22:17:00,
2013-03-01 16:23:00,50.6,31.6,30.28,North,349,14.0,24.0,48,0.00,,---,0.00,VWS V14.01,2013-03-01 22:23:00,
2013-03-01 16:28:00,50.7,32.8,30.28,NNW,336,18.0,25.0,50,0.00,,---,0.00,VWS V14.01,2013-03-01 22:28:00,
2013-03-01 16:33:00,50.9,31.9,30.28,WNW,290,10.0,17.0,48,0.00,,---,0.00,VWS V14.01,2013-03-01 22:33:00,
2013-03-01 16:38:00,50.7,31.2,30.28,NNW,343,20.0,23.0,47,0.00,,---,0.00,VWS V14.01,2013-03-01 22:38:00,
2013-03-01 16:43:00,50.6,31.1,30.28,North,355,14.0,26.0,47,0.00,,---,0.00,VWS V14.01,2013-03-01 22:43:00,
2013-03-01 16:48:00,50.5,30.5,30.28,North,350,17.0,26.0,46,0.00,,---,0.00,VWS V14.01,2013-03-01 22:48:00,
2013-03-01 16:53:00,50.6,30.1,30.28,NW,323,14.0,26.0,45,0.00,,---,0.00,VWS V14.01,2013-03-01 22:53:00,
2013-03-01 16:58:00,50.2,30.8,30.29,NNW,348,11.0,26.0,47,0.00,,---,0.00,VWS V14.01,2013-03-01 22:58:00,
2013-03-01 17:04:00,50.6,31.6,30.28,NNW,330,9.0,17.0,48,0.00,,---,0.00,VWS V14.01,2013-03-01 23:04:00,
2013-03-01 17:09:00,50.1,30.7,30.29,NW,326,12.0,24.0,47,0.00,,---,0.00,VWS V14.01,2013-03-01 23:09:00,
2013-03-01 17:14:00,49.9,31.5,30.28,NW,326,8.0,24.0,49,0.00,,---,0.00,VWS V14.01,2013-03-01 23:14:00,
2013-03-01 17:19:00,49.8,30.4,30.28,NW,324,12.0,24.0,47,0.00,,---,0.00,VWS V14.01,2013-03-01 23:19:00,
2013-03-01 17:24:00,49.6,30.7,30.29,North,352,13.0,24.0,48,0.00,,---,0.00,VWS V14.01,2013-03-01 23:24:00,
2013-03-01 17:29:00,49.6,31.2,30.29,North,359,8.0,24.0,49,0.00,,---,0.00,VWS V14.01,2013-03-01 23:29:00,
2013-03-01 17:34:00,49.4,31.1,30.29,North,357,13.0,17.0,49,0.00,,---,0.00,VWS V14.01,2013-03-01 23:34:00,
2013-03-01 17:39:00,49.1,30.3,30.29,North,1,8.0,17.0,48,0.00,,---,0.00,VWS V14.01,2013-03-01 23:39:00,
2013-03-01 17:45:00,48.7,30.9,30.29,North,1,13.0,17.0,50,0.00,,---,0.00,VWS V14.01,2013-03-01 23:45:00,
2013-03-01 17:50:00,48.3,31.0,30.29,North,352,11.0,17.0,51,0.00,,---,0.00,VWS V14.01,2013-03-01 23:50:00,
2013-03-01 17:55:00,47.9,31.1,30.29,NNW,340,8.0,18.0,52,0.00,,---,0.00,VWS V14.01,2013-03-01 23:55:00,
2013-03-01 18:00:00,47.6,30.9,30.29,North,349,9.0,18.0,52,0.00,,---,0.00,VWS V14.01,2013-03-02 00:00:00,
2013-03-01 18:05:00,47.4,30.7,30.29,NNW,342,10.0,12.0,52,0.00,,---,0.00,VWS V14.01,2013-03-02 00:05:00,
2013-03-01 18:10:00,47.2,31.0,30.29,NW,316,4.0,12.0,53,0.00,,---,0.00,VWS V14.01,2013-03-02 00:10:00,
2013-03-01 18:15:00,47.0,30.8,30.30,North,349,7.0,12.0,53,0.00,,---,0.00,VWS V14.01,2013-03-02 00:15:00,
2013-03-01 18:20:00,46.7,31.0,30.30,NNW,340,6.0,12.0,54,0.00,,---,0.00,VWS V14.01,2013-03-02 00:20:00,
2013-03-01 18:25:00,46.1,30.9,30.30,NNW,342,3.0,12.0,55,0.00,,---,0.00,VWS V14.01,2013-03-02 00:25:00,
2013-03-01 18:30:00,45.6,30.8,30.30,NNE,27,8.0,12.0,56,0.00,,---,0.00,VWS V14.01,2013-03-02 00:30:00,
2013-03-01 18:35:00,45.3,31.4,30.30,North,6,5.0,9.0,58,0.00,,---,0.00,VWS V14.01,2013-03-02 00:35:00,
2013-03-01 18:40:00,44.8,30.9,30.30,North,359,5.0,9.0,58,0.00,,---,0.00,VWS V14.01,2013-03-02 00:40:00,
2013-03-01 18:46:00,44.5,31.1,30.30,North,3,3.0,9.0,59,0.00,,---,0.00,VWS V14.01,2013-03-02 00:46:00,
2013-03-01 18:51:00,44.2,31.2,30.30,NNE,22,3.0,9.0,60,0.00,,---,0.00,VWS V14.01,2013-03-02 00:51:00,
2013-03-01 18:56:00,44.3,30.9,30.31,NNW,345,3.0,9.0,59,0.00,,---,0.00,VWS V14.01,2013-03-02 00:56:00,
2013-03-01 19:01:00,44.3,30.9,30.31,North,354,3.0,3.0,59,0.00,,---,0.00,VWS V14.01,2013-03-02 01:01:00,
2013-03-01 19:06:00,44.1,31.1,30.31,North,11,4.0,6.0,60,0.00,,---,0.00,VWS V14.01,2013-03-02 01:06:00,
2013-03-01 19:11:00,44.1,31.5,30.31,North,5,5.0,6.0,61,0.00,,---,0.00,VWS V14.01,2013-03-02 01:11:00,
2013-03-01 19:16:00,44.1,31.1,30.31,North,6,3.0,6.0,60,0.00,,---,0.00,VWS V14.01,2013-03-02 01:16:00,
2013-03-01 19:21:00,43.7,31.5,30.32,North,352,3.0,6.0,62,0.00,,---,0.00,VWS V14.01,2013-03-02 01:21:00,
2013-03-01 19:27:00,43.5,31.4,30.32,NNW,342,3.0,6.0,62,0.00,,---,0.00,VWS V14.01,2013-03-02 01:27:00,
2013-03-01 19:32:00,43.2,31.1,30.32,North,357,4.0,5.0,62,0.00,,---,0.00,VWS V14.01,2013-03-02 01:32:00,
2013-03-01 19:37:00,42.8,31.1,30.32,NNE,18,3.0,5.0,63,0.00,,---,0.00,VWS V14.01,2013-03-02 01:37:00,
2013-03-01 19:42:00,42.3,31.0,30.32,North,350,3.0,5.0,64,0.00,,---,0.00,VWS V14.01,2013-03-02 01:42:00,
2013-03-01 19:47:00,42.0,31.1,30.32,North,354,2.0,5.0,65,0.00,,---,0.00,VWS V14.01,2013-03-02 01:47:00,
2013-03-01 19:52:00,41.9,31.4,30.33,NNW,333,2.0,5.0,66,0.00,,---,0.00,VWS V14.01,2013-03-02 01:52:00,
2013-03-01 19:57:00,41.8,31.3,30.33,North,350,2.0,5.0,66,0.00,,---,0.00,VWS V14.01,2013-03-02 01:57:00,
2013-03-01 20:02:00,41.7,31.2,30.33,NNW,339,2.0,4.0,66,0.00,,---,0.00,VWS V14.01,2013-03-02 02:02:00,
2013-03-01 20:08:00,41.4,31.6,30.33,North,4,3.0,4.0,68,0.00,,---,0.00,VWS V14.01,2013-03-02 02:08:00,
2013-03-01 20:13:00,41.1,31.7,30.34,NNW,340,2.0,5.0,69,0.00,,---,0.00,VWS V14.01,2013-03-02 02:13:00,
2013-03-01 20:18:00,40.9,31.5,30.34,North,353,4.0,6.0,69,0.00,,---,0.00,VWS V14.01,2013-03-02 02:18:00,
2013-03-01 20:23:00,40.7,32.0,30.34,North,350,4.0,6.0,71,0.00,,---,0.00,VWS V14.01,2013-03-02 02:23:00,
2013-03-01 20:28:00,40.6,32.0,30.34,North,355,5.0,6.0,71,0.00,,---,0.00,VWS V14.01,2013-03-02 02:28:00,
2013-03-01 20:34:00,40.8,31.8,30.34,North,1,4.0,8.0,70,0.00,,---,0.00,VWS V14.01,2013-03-02 02:34:00,
2013-03-01 20:39:00,40.9,31.5,30.35,NNW,333,3.0,8.0,69,0.00,,---,0.00,VWS V14.01,2013-03-02 02:39:00,
2013-03-01 20:44:00,41.0,31.6,30.35,NNW,328,3.0,8.0,69,0.00,,---,0.00,VWS V14.01,2013-03-02 02:44:00,
2013-03-01 20:49:00,41.2,31.5,30.35,NE,37,6.0,9.0,68,0.00,,---,0.00,VWS V14.01,2013-03-02 02:49:00,
2013-03-01 20:54:00,41.3,31.5,30.35,NNW,338,4.0,9.0,68,0.00,,---,0.00,VWS V14.01,2013-03-02 02:54:00,
2013-03-01 20:59:00,41.4,31.3,30.35,NW,318,7.0,9.0,67,0.00,,---,0.00,VWS V14.01,2013-03-02 02:59:00,
2013-03-01 21:04:00,41.3,31.5,30.35,NNW,341,5.0,10.0,68,0.00,,---,0.00,VWS V14.01,2013-03-02 03:04:00,
2013-03-01 21:09:00,41.0,31.6,30.35,North,352,6.0,11.0,69,0.00,,---,0.00,VWS V14.01,2013-03-02 03:09:00,
2013-03-01 21:15:00,40.7,31.3,30.36,NNW,338,6.0,11.0,69,0.00,,---,0.00,VWS V14.01,2013-03-02 03:15:00,
2013-03-01 21:20:00,40.3,31.3,30.36,North,359,8.0,11.0,70,0.00,,---,0.00,VWS V14.01,2013-03-02 03:20:00,
2013-03-01 21:25:00,39.8,31.2,30.36,NNW,347,5.0,11.0,71,0.00,,---,0.00,VWS V14.01,2013-03-02 03:25:00,
2013-03-01 21:30:00,39.5,31.2,30.36,North,1,5.0,11.0,72,0.00,,---,0.00,VWS V14.01,2013-03-02 03:30:00,
2013-03-01 21:35:00,39.0,31.1,30.36,North,357,5.0,7.0,73,0.00,,---,0.00,VWS V14.01,2013-03-02 03:35:00,
2013-03-01 21:40:00,38.5,31.0,30.36,North,359,5.0,7.0,74,0.00,,---,0.00,VWS V14.01,2013-03-02 03:40:00,
2013-03-01 21:45:00,37.9,31.0,30.37,North,357,4.0,7.0,76,0.00,,---,0.00,VWS V14.01,2013-03-02 03:45:00,
2013-03-01 21:51:00,37.6,30.7,30.37,North,5,5.0,7.0,76,0.00,,---,0.00,VWS V14.01,2013-03-02 03:51:00,
2013-03-01 21:56:00,37.2,30.7,30.37,NNW,340,2.0,7.0,77,0.00,,---,0.00,VWS V14.01,2013-03-02 03:56:00,
2013-03-01 22:01:00,36.7,30.5,30.38,NNW,344,2.0,3.0,78,0.00,,---,0.00,VWS V14.01,2013-03-02 04:01:00,
2013-03-01 22:06:00,36.5,30.3,30.38,NNW,330,3.0,4.0,78,0.00,,---,0.00,VWS V14.01,2013-03-02 04:06:00,
2013-03-01 22:11:00,36.6,30.4,30.38,NNW,330,3.0,4.0,78,0.00,,---,0.00,VWS V14.01,2013-03-02 04:11:00,
2013-03-01 22:16:00,36.5,30.3,30.38,NNW,333,2.0,4.0,78,0.00,,---,0.00,VWS V14.01,2013-03-02 04:16:00,
2013-03-01 22:22:00,36.3,30.4,30.38,NNW,339,2.0,4.0,79,0.00,,---,0.00,VWS V14.01,2013-03-02 04:22:00,
2013-03-01 22:27:00,36.0,30.1,30.38,NW,319,2.0,4.0,79,0.00,,---,0.00,VWS V14.01,2013-03-02 04:27:00,
2013-03-01 22:32:00,35.8,30.2,30.38,NW,326,2.0,4.0,80,0.00,,---,0.00,VWS V14.01,2013-03-02 04:32:00,
2013-03-01 22:37:00,35.6,30.0,30.39,NW,326,3.0,4.0,80,0.00,,---,0.00,VWS V14.01,2013-03-02 04:37:00,
2013-03-01 22:42:00,35.3,29.8,30.39,NW,326,2.0,4.0,80,0.00,,---,0.00,VWS V14.01,2013-03-02 04:42:00,
2013-03-01 22:47:00,35.1,29.9,30.39,NW,317,2.0,4.0,81,0.00,,---,0.00,VWS V14.01,2013-03-02 04:47:00,
2013-03-01 22:52:00,34.9,29.7,30.39,NW,323,2.0,4.0,81,0.00,,---,0.00,VWS V14.01,2013-03-02 04:52:00,
2013-03-01 22:57:00,34.7,29.5,30.39,NW,323,2.0,4.0,81,0.00,,---,0.00,VWS V14.01,2013-03-02 04:57:00,
2013-03-01 23:00:00,34.5,29.6,30.39,NW,326,2.0,4.0,82,0.00,,---,0.00,VWS V14.01,2013-03-02 05:00:00,
2013-03-01 23:01:00,34.4,29.5,30.39,NNW,329,1.0,2.0,82,0.00,,---,0.00,VWS V14.01,2013-03-02 05:01:00,
2013-03-01 23:06:00,34.0,29.1,30.39,NW,325,1.0,2.0,82,0.00,,---,0.00,VWS V14.01,2013-03-02 05:06:00,
2013-03-01 23:12:00,33.7,29.1,30.40,NNW,333,1.0,2.0,83,0.00,,---,0.00,VWS V14.01,2013-03-02 05:12:00,
2013-03-01 23:17:00,33.3,29.0,30.40,NNW,336,1.0,2.0,84,0.00,,---,0.00,VWS V14.01,2013-03-02 05:17:00,
2013-03-01 23:22:00,33.2,28.9,30.40,NNW,331,1.0,2.0,84,0.00,,---,0.00,VWS V14.01,2013-03-02 05:22:00,
2013-03-01 23:27:00,33.0,28.7,30.40,NW,323,1.0,2.0,84,0.00,,---,0.00,VWS V14.01,2013-03-02 05:27:00,
2013-03-01 23:32:00,32.9,28.6,30.40,NNW,340,2.0,3.0,84,0.00,,---,0.00,VWS V14.01,2013-03-02 05:32:00,
2013-03-01 23:37:00,32.8,28.8,30.40,North,1,2.0,3.0,85,0.00,,---,0.00,VWS V14.01,2013-03-02 05:37:00,
2013-03-01 23:42:00,32.8,28.8,30.41,North,352,3.0,3.0,85,0.00,,---,0.00,VWS V14.01,2013-03-02 05:42:00,
2013-03-01 23:48:00,32.6,28.6,30.41,NNW,333,3.0,3.0,85,0.00,,---,0.00,VWS V14.01,2013-03-02 05:48:00,
2013-03-01 23:53:00,32.7,28.7,30.41,NNW,327,2.0,3.0,85,0.00,,---,0.00,VWS V14.01,2013-03-02 05:53:00,
2013-03-01 23:58:00,32.5,28.5,30.41,NNW,328,1.0,3.0,85,0.00,,---,0.00,VWS V14.01,2013-03-02 05:58:00,